Overseas Luzon — V7NE5 — position and weather

sailwx.info

Track history (hours):
 
Tides and Currents Weather Stations Pressure Air Temp Water Temp Dewpoint Dewpoint Depression Visibility Wind Speed Wind Dir Waves Ship Positions

Overseas Luzon

Last reported at 2017-Jun-14 12:54 UTC. Time now 2017-Jun-28 15:51 UTC.
Position N 26°07' W 114°45'.
Warning: this ship's position is 14 days out of date.

Length 228 m; draft 8.2 m.

Type: Tanker. MMSI: 538002946.

Date/timePositionNaut miles runAvg speedWind from/ knotsBaromVisibWave heightAir tempDewpointWater temp
2017-Jun-14 12:54N 26°07' W 114°45'2013.8
2017-Jun-14 11:30N 26°23' W 114°57'813.8
2017-Jun-14 10:54N 26°30' W 115°02'613.9
2017-Jun-14 10:30N 26°35' W 115°05'813.8
2017-Jun-14 09:57N 26°41' W 115°10'13113.7
2017-Jun-14 00:22N 28°36' W 116°21'11713.9
2017-Jun-13 16:00N 30°29' W 116°58'1314.0
2017-Jun-13 15:03N 30°41' W 117°02'114.2
2017-Jun-13 15:00N 30°42' W 117°03'1414.0
2017-Jun-13 14:01N 30°55' W 117°07'714.0
2017-Jun-13 13:30N 31°02' W 117°09'1913.9
2017-Jun-13 12:08N 31°20' W 117°15'213.8
2017-Jun-13 12:00N 31°22' W 117°16'713.8
2017-Jun-13 11:30N 31°29' W 117°18'713.7
2017-Jun-13 11:01N 31°35' W 117°20'714.1
2017-Jun-13 10:31N 31°42' W 117°22'714.5
2017-Jun-13 10:00N 31°49' W 117°25'714.7
2017-Jun-13 09:30N 31°56' W 117°27'714.3
2017-Jun-13 08:59N 32°03' W 117°29'714.0
2017-Jun-13 08:30N 32°10' W 117°31'714.1
2017-Jun-13 08:00N 32°17' W 117°33'713.9
2017-Jun-13 07:31N 32°23' W 117°36'713.4
2017-Jun-13 07:01N 32°29' W 117°39'713.5
2017-Jun-13 06:31N 32°36' W 117°42'714.4
2017-Jun-13 06:00N 32°42' W 117°45'714.3
2017-Jun-13 05:30N 32°49' W 117°48'714.2
2017-Jun-13 05:00N 32°56' W 117°51'713.2
2017-Jun-13 04:30N 33°02' W 117°54'611.9
2017-Jun-13 04:01N 33°07' W 117°57'611.9
2017-Jun-13 03:31N 33°12' W 118°01'612.1
2017-Jun-13 03:00N 33°17' W 118°05'611.9
2017-Jun-13 02:31N 33°23' W 118°08'611.9
2017-Jun-13 02:01N 33°28' W 118°10'611.9
2017-Jun-13 01:30N 33°34' W 118°12'611.2
2017-Jun-13 01:00N 33°39' W 118°12'5 9.4
2017-Jun-13 00:30N 33°44' W 118°11'1 0.9
2017-Jun-12 23:58N 33°44' W 118°10'0 0.0
2017-Jun-12 23:28N 33°44' W 118°10'0 0.0
2017-Jun-12 22:58N 33°44' W 118°10'0 0.0
2017-Jun-12 22:28N 33°44' W 118°10'0 0.0
2017-Jun-12 21:49N 33°44' W 118°10'0 0.0
2017-Jun-12 20:49N 33°44' W 118°10'0 0.0
2017-Jun-12 20:25N 33°44' W 118°10'0 0.1
2017-Jun-12 19:13N 33°44' W 118°10'0 0.2
2017-Jun-12 18:57N 33°44' W 118°10'0 0.0
2017-Jun-12 18:30N 33°44' W 118°10'0 0.1
2017-Jun-12 18:00N 33°44' W 118°10'0 0.0
2017-Jun-12 17:30N 33°44' W 118°10'0 0.1
2017-Jun-12 17:00N 33°44' W 118°10'0 0.0
2017-Jun-12 16:24N 33°44' W 118°10'0 0.0
2017-Jun-12 15:58N 33°44' W 118°10'0 0.1
2017-Jun-12 15:30N 33°44' W 118°10'0 0.1
2017-Jun-12 14:53N 33°44' W 118°10'0 0.1
2017-Jun-12 14:30N 33°44' W 118°10'0 0.1
2017-Jun-12 13:22N 33°44' W 118°10'0 0.0
2017-Jun-12 12:57N 33°44' W 118°10'0 0.0
2017-Jun-12 12:29N 33°44' W 118°10'0 0.1
2017-Jun-12 12:00N 33°44' W 118°10'0 0.0
2017-Jun-12 11:26N 33°44' W 118°10'0 0.1
2017-Jun-12 10:53N 33°44' W 118°10'0 0.0
2017-Jun-12 10:08N 33°44' W 118°10'0 0.1
2017-Jun-12 09:59N 33°44' W 118°10'0 0.0
2017-Jun-12 09:30N 33°44' W 118°10'0 0.0
2017-Jun-12 09:00N 33°44' W 118°10'0 0.0
2017-Jun-12 08:22N 33°44' W 118°10'0 0.0
2017-Jun-12 07:58N 33°44' W 118°10'0 0.1
2017-Jun-12 07:26N 33°44' W 118°10'0 0.1
2017-Jun-12 07:00N 33°44' W 118°10'0 0.1
2017-Jun-12 06:27N 33°44' W 118°10'0 0.1
2017-Jun-12 04:30N 33°44' W 118°10'5 6.7
2017-Jun-12 03:49N 33°39' W 118°11'3 7.8
2017-Jun-12 03:29N 33°37' W 118°12'510.0
2017-Jun-12 02:58N 33°36' W 118°18'4 9.2
2017-Jun-12 02:30N 33°36' W 118°23'611.3
2017-Jun-12 02:00N 33°36' W 118°30'611.6
2017-Jun-12 01:30N 33°37' W 118°37'4 8.4
2017-Jun-12 01:00N 33°37' W 118°42'1 1.7
2017-Jun-12 00:30N 33°37' W 118°43'1 2.0
2017-Jun-12 00:00N 33°37' W 118°44'3 6.5
2017-Jun-11 23:30N 33°38' W 118°48'611.9
2017-Jun-11 23:00N 33°39' W 118°55'612.1
2017-Jun-11 22:30N 33°39' W 119°03'4 7.2
2017-Jun-11 22:00N 33°39' W 119°07'4 8.9
2017-Jun-11 21:30N 33°38' W 119°12'713.9
2017-Jun-11 21:00N 33°38' W 119°21'713.7
2017-Jun-11 20:30N 33°38' W 119°29'713.6
2017-Jun-11 20:00N 33°38' W 119°37'713.4
2017-Jun-11 19:29N 33°38' W 119°45'613.2
2017-Jun-11 19:00N 33°38' W 119°53'713.4
2017-Jun-11 18:30N 33°38' W 120°01'713.2
2017-Jun-11 18:00N 33°37' W 120°09'713.3
2017-Jun-11 17:30N 33°37' W 120°17'713.5
2017-Jun-11 17:00N 33°37' W 120°25'713.6
2017-Jun-11 16:30N 33°37' W 120°33'612.7
2017-Jun-11 16:00N 33°38' W 120°41'714.7
2017-Jun-11 15:31N 33°44' W 120°45'715.0
2017-Jun-11 15:01N 33°51' W 120°50'1515.0
2017-Jun-11 14:01N 34°04' W 120°59'815.0
2017-Jun-11 13:31N 34°10' W 121°04'815.1
2017-Jun-11 13:01N 34°17' W 121°08'815.3
2017-Jun-11 12:31N 34°23' W 121°13'715.0
2017-Jun-11 12:01N 34°30' W 121°17'714.2
2017-Jun-11 11:31N 34°36' W 121°22'815.1
2017-Jun-11 11:00N 34°42' W 121°26'714.8
2017-Jun-11 10:31N 34°49' W 121°31'714.7
2017-Jun-11 10:01N 34°55' W 121°36'714.7
2017-Jun-11 09:30N 35°01' W 121°40'714.7
2017-Jun-11 09:01N 35°08' W 121°45'815.0
2017-Jun-11 08:30N 35°14' W 121°50'815.5
2017-Jun-11 08:00N 35°21' W 121°54'815.5
2017-Jun-11 07:30N 35°28' W 121°59'815.2
2017-Jun-11 07:00N 35°34' W 122°04'715.1
2017-Jun-11 06:30N 35°41' W 122°09'815.0
2017-Jun-11 06:00N 35°47' W 122°13'815.2
2017-Jun-11 05:30N 35°54' W 122°17'815.0
2017-Jun-11 05:00N 36°01' W 122°21'714.9
2017-Jun-11 04:30N 36°08' W 122°25'714.7
2017-Jun-11 04:00N 36°14' W 122°29'815.0
2017-Jun-11 03:30N 36°21' W 122°33'815.4
2017-Jun-11 02:59N 36°28' W 122°37'714.9
2017-Jun-11 02:30N 36°35' W 122°41'815.0
2017-Jun-11 01:59N 36°42' W 122°45'714.4
2017-Jun-11 01:30N 36°48' W 122°48'714.4
2017-Jun-11 01:00N 36°55' W 122°52'714.6
2017-Jun-11 00:30N 37°01' W 122°56'914.8
2017-Jun-10 23:52N 37°10' W 123°01'1014.7
2017-Jun-10 23:10N 37°20' W 123°05'314.6
2017-Jun-10 22:57N 37°23' W 123°06'614.4
2017-Jun-10 22:30N 37°29' W 123°09'713.9
2017-Jun-10 22:00N 37°34' W 123°04'713.9
2017-Jun-10 21:30N 37°38' W 122°57'714.2
2017-Jun-10 21:00N 37°42' W 122°49'713.7
2017-Jun-10 20:30N 37°46' W 122°42'612.0
2017-Jun-10 20:00N 37°47' W 122°35'612.9
2017-Jun-10 19:31N 37°50' W 122°28'5 9.1
2017-Jun-10 19:00N 37°54' W 122°27'713.2
2017-Jun-10 18:30N 38°01' W 122°24'714.2
2017-Jun-10 18:00N 38°04' W 122°16'612.6
2017-Jun-10 17:30N 38°02' W 122°08'0 0.5
2017-Jun-10 16:59N 38°02' W 122°08'0 0.0
2017-Jun-10 16:30N 38°02' W 122°08'  
2017-Jun-08 10:00N 38°02' W 122°08'0 0.2
2017-Jun-08 09:30N 38°02' W 122°08'4 4.0
2017-Jun-08 08:23N 38°04' W 122°13'2 6.0
2017-Jun-08 08:00N 38°04' W 122°16'4 7.1
2017-Jun-08 07:30N 38°03' W 122°21'3 6.2
2017-Jun-08 07:00N 38°01' W 122°24'4 7.5
2017-Jun-08 06:30N 37°58' W 122°27'510.7
2017-Jun-08 06:00N 37°53' W 122°25'510.7
2017-Jun-08 05:30N 37°48' W 122°22'3 5.2
2017-Jun-08 05:00N 37°45' W 122°21'0 0.1
2017-Jun-08 04:30N 37°45' W 122°21'0 0.0
2017-Jun-08 04:00N 37°45' W 122°21'0 0.1
2017-Jun-08 03:30N 37°45' W 122°21'0 0.0
2017-Jun-08 03:00N 37°45' W 122°21'0 0.0
2017-Jun-08 02:30N 37°45' W 122°21'0 0.3
2017-Jun-08 02:00N 37°46' W 122°21'0 0.4
2017-Jun-08 01:30N 37°46' W 122°21'0 0.1
2017-Jun-08 01:00N 37°46' W 122°21'0 0.0
2017-Jun-08 00:30N 37°46' W 122°21'0 0.1
2017-Jun-08 00:00N 37°46' W 122°21'0 0.0
2017-Jun-07 23:30N 37°46' W 122°21'0 0.0
2017-Jun-07 23:00N 37°46' W 122°21'0 0.1
2017-Jun-07 22:30N 37°46' W 122°21'0 0.0
2017-Jun-07 22:00N 37°46' W 122°21'0 0.1
2017-Jun-07 21:30N 37°46' W 122°21'0 0.0
2017-Jun-07 21:00N 37°46' W 122°21'0 0.2
2017-Jun-07 20:30N 37°46' W 122°21'0 0.4
2017-Jun-07 20:00N 37°45' W 122°21'0 0.1
2017-Jun-07 19:30N 37°45' W 122°21'0 0.1
2017-Jun-07 19:00N 37°45' W 122°21'0 0.1
2017-Jun-07 18:30N 37°45' W 122°21'0 0.1
2017-Jun-07 18:00N 37°45' W 122°21'0 0.0
2017-Jun-07 17:30N 37°45' W 122°21'0 0.0
2017-Jun-07 17:00N 37°45' W 122°21'0 0.0
2017-Jun-07 16:30N 37°45' W 122°21'0 0.0
2017-Jun-07 16:01N 37°45' W 122°21'0 0.1
2017-Jun-07 15:31N 37°45' W 122°21'0 0.0
2017-Jun-07 15:01N 37°45' W 122°21'0 0.1
2017-Jun-07 14:01N 37°46' W 122°21'0 0.2
2017-Jun-07 13:31N 37°46' W 122°21'0 0.0
2017-Jun-07 13:00N 37°46' W 122°21'0 0.0
2017-Jun-07 12:30N 37°46' W 122°21'0 0.1
2017-Jun-07 12:01N 37°46' W 122°21'0 0.0
2017-Jun-07 11:31N 37°46' W 122°21'0 0.0
2017-Jun-07 11:00N 37°46' W 122°21'0 0.0
2017-Jun-07 10:31N 37°46' W 122°21'0 0.0
2017-Jun-07 10:00N 37°46' W 122°21'0 0.0
2017-Jun-07 09:31N 37°46' W 122°21'0 0.0
2017-Jun-07 09:00N 37°46' W 122°21'0 0.0
2017-Jun-07 08:31N 37°46' W 122°21'0 0.0
2017-Jun-07 08:00N 37°46' W 122°21'0 0.2
2017-Jun-07 07:31N 37°46' W 122°21'0 0.3
2017-Jun-07 07:01N 37°46' W 122°21'0 0.2
2017-Jun-07 06:30N 37°45' W 122°21'0 0.1
2017-Jun-07 06:01N 37°45' W 122°21'0 0.0
2017-Jun-07 05:31N 37°45' W 122°21'0 0.0
2017-Jun-07 05:00N 37°45' W 122°21'0 0.0
2017-Jun-07 04:31N 37°45' W 122°21'0 0.0
2017-Jun-07 04:00N 37°45' W 122°21'0 0.1
2017-Jun-07 03:30N 37°45' W 122°21'0 0.0
2017-Jun-07 03:01N 37°45' W 122°21'0 0.1
2017-Jun-07 02:31N 37°45' W 122°21'0 0.0
2017-Jun-07 02:00N 37°45' W 122°21'0 0.1
2017-Jun-07 01:31N 37°45' W 122°21'0 0.2
2017-Jun-07 01:01N 37°46' W 122°21'0 0.4
2017-Jun-07 00:30N 37°46' W 122°21'0 0.1
2017-Jun-07 00:00N 37°46' W 122°21'0 0.0
2017-Jun-06 23:31N 37°46' W 122°21'0 0.1
2017-Jun-06 23:01N 37°46' W 122°21'1 2.7
2017-Jun-06 22:31N 37°47' W 122°22'4 7.7
2017-Jun-06 22:00N 37°49' W 122°26'4 8.6
2017-Jun-06 21:30N 37°48' W 122°31'611.8
2017-Jun-06 21:00N 37°46' W 122°38'5 9.8
2017-Jun-06 20:30N 37°43' W 122°43'4 8.4
2017-Jun-06 20:01N 37°40' W 122°47'510.4
2017-Jun-06 19:31N 37°37' W 122°53'611.3
2017-Jun-06 19:01N 37°34' W 122°59'612.0
2017-Jun-06 18:31N 37°31' W 123°05'612.1
2017-Jun-06 18:01N 37°27' W 123°11'612.0
2017-Jun-06 17:29N 37°24' W 123°18'612.1
2017-Jun-06 17:00N 37°20' W 123°23'612.2
2017-Jun-06 16:31N 37°16' W 123°29'611.0
2017-Jun-06 16:01N 37°11' W 123°31'1 1.9
2017-Jun-06 15:31N 37°10' W 123°32'0 0.6
2017-Jun-06 15:00N 37°11' W 123°32'4 7.0
2017-Jun-06 14:31N 37°07' W 123°34'1211.9
2017-Jun-06 13:30N 36°56' W 123°40'611.9
2017-Jun-06 13:01N 36°51' W 123°42'612.0
2017-Jun-06 12:31N 36°45' W 123°44'611.9
2017-Jun-06 12:01N 36°39' W 123°47'611.7
2017-Jun-06 11:30N 36°34' W 123°50'611.7
2017-Jun-06 11:01N 36°28' W 123°52'611.6
2017-Jun-06 10:30N 36°23' W 123°55'611.6
2017-Jun-06 10:01N 36°18' W 123°57'611.6
2017-Jun-06 09:30N 36°12' W 123°60'611.5
2017-Jun-06 09:01N 36°07' W 124°02'611.4
2017-Jun-06 08:31N 36°01' W 124°05'611.3
2017-Jun-06 08:01N 35°56' W 124°07'611.1
2017-Jun-06 07:29N 35°51' W 124°09'511.1
2017-Jun-06 07:00N 35°46' W 124°12'611.1
2017-Jun-06 06:30N 35°41' W 124°15'510.9
2017-Jun-06 06:01N 35°36' W 124°17'510.7
2017-Jun-06 05:31N 35°31' W 124°19'611.1
2017-Jun-06 05:01N 35°25' W 124°21'611.8
2017-Jun-06 04:30N 35°20' W 124°24'611.8
2017-Jun-06 03:58N 35°14' W 124°26'4711.5
2017-Jun-05 23:52N 34°30' W 124°47'3011.2
2017-Jun-05 21:12N 34°01' W 124°56'511.5
2017-Jun-05 20:46N 33°57' W 124°54'311.7
2017-Jun-05 20:31N 33°54' W 124°53'711.6
2017-Jun-05 19:56N 33°48' W 124°50'3611.3
2017-Jun-05 16:45N 33°14' W 124°34'411.7
2017-Jun-05 16:24N 33°10' W 124°33'511.5
2017-Jun-05 16:00N 33°06' W 124°31'611.6
2017-Jun-05 15:30N 33°01' W 124°28'611.8
2017-Jun-05 15:01N 32°55' W 124°25'711.7
2017-Jun-05 14:24N 32°48' W 124°22'1211.4
2017-Jun-05 13:23N 32°38' W 124°17'411.3
2017-Jun-05 13:00N 32°34' W 124°15'2011.5
2017-Jun-05 11:17N 32°15' W 124°07'411.3
2017-Jun-05 10:55N 32°11' W 124°05'511.4
2017-Jun-05 10:30N 32°07' W 124°03'1211.4
2017-Jun-05 09:24N 31°56' W 123°56'511.6
2017-Jun-05 09:01N 31°53' W 123°53'611.6
2017-Jun-05 08:30N 31°48' W 123°48'911.5
2017-Jun-05 07:46N 31°42' W 123°41'811.4
2017-Jun-05 07:03N 31°36' W 123°35'111.2
2017-Jun-05 06:59N 31°35' W 123°34'511.5
2017-Jun-05 06:31N 31°31' W 123°30'1511.6
2017-Jun-05 05:10N 31°20' W 123°18'211.2
2017-Jun-05 05:01N 31°19' W 123°16'611.5
2017-Jun-05 04:31N 31°14' W 123°12'611.5
2017-Jun-05 04:00N 31°10' W 123°07'1411.3
2017-Jun-05 02:44N 30°59' W 122°56'411.5
2017-Jun-05 02:21N 30°56' W 122°52'411.4
2017-Jun-05 02:00N 30°53' W 122°49'611.3
2017-Jun-05 01:25N 30°48' W 122°44'1011.5
2017-Jun-05 00:32N 30°41' W 122°36'010.9
2017-Jun-05 00:29N 30°41' W 122°35'611.4
2017-Jun-04 23:59N 30°36' W 122°31'511.5
2017-Jun-04 23:31N 30°32' W 122°27'911.7
2017-Jun-04 22:46N 30°26' W 122°20'311.8
2017-Jun-04 22:31N 30°24' W 122°18'611.9
2017-Jun-04 22:00N 30°19' W 122°13'6112.2
2017-Jun-04 17:01N 29°34' W 121°26'013.1
2017-Jun-04 17:01N 29°34' W 121°26'3712.3
2017-Jun-04 14:01N 29°07' W 120°57'712.5
2017-Jun-04 13:26N 29°01' W 120°52'512.4
2017-Jun-04 13:01N 28°58' W 120°48'  
Track history (hours):
 
Tides and Currents Weather Stations Pressure Air Temp Water Temp Dewpoint Dewpoint Depression Visibility Wind Speed Wind Dir Waves Ship Positions

Overseas Luzon

Last reported at 2017-Jun-14 12:54 UTC. Time now 2017-Jun-28 15:51 UTC.
Position N 26°07' W 114°45'.
Warning: this ship's position is 14 days out of date.

Length 228 m; draft 8.2 m.

Type: Tanker. MMSI: 538002946.

Date/timePositionNaut miles runAvg speedWind from/ knotsBaromVisibWave heightAir tempDewpointWater temp
2017-Jun-14 12:54N 26°07' W 114°45'2013.8
2017-Jun-14 11:30N 26°23' W 114°57'813.8
2017-Jun-14 10:54N 26°30' W 115°02'613.9
2017-Jun-14 10:30N 26°35' W 115°05'813.8
2017-Jun-14 09:57N 26°41' W 115°10'13113.7
2017-Jun-14 00:22N 28°36' W 116°21'11713.9
2017-Jun-13 16:00N 30°29' W 116°58'1314.0
2017-Jun-13 15:03N 30°41' W 117°02'114.2
2017-Jun-13 15:00N 30°42' W 117°03'1414.0
2017-Jun-13 14:01N 30°55' W 117°07'714.0
2017-Jun-13 13:30N 31°02' W 117°09'1913.9
2017-Jun-13 12:08N 31°20' W 117°15'213.8
2017-Jun-13 12:00N 31°22' W 117°16'713.8
2017-Jun-13 11:30N 31°29' W 117°18'713.7
2017-Jun-13 11:01N 31°35' W 117°20'714.1
2017-Jun-13 10:31N 31°42' W 117°22'714.5
2017-Jun-13 10:00N 31°49' W 117°25'714.7
2017-Jun-13 09:30N 31°56' W 117°27'714.3
2017-Jun-13 08:59N 32°03' W 117°29'714.0
2017-Jun-13 08:30N 32°10' W 117°31'714.1
2017-Jun-13 08:00N 32°17' W 117°33'713.9
2017-Jun-13 07:31N 32°23' W 117°36'713.4
2017-Jun-13 07:01N 32°29' W 117°39'713.5
2017-Jun-13 06:31N 32°36' W 117°42'714.4
2017-Jun-13 06:00N 32°42' W 117°45'714.3
2017-Jun-13 05:30N 32°49' W 117°48'714.2
2017-Jun-13 05:00N 32°56' W 117°51'713.2
2017-Jun-13 04:30N 33°02' W 117°54'611.9
2017-Jun-13 04:01N 33°07' W 117°57'611.9
2017-Jun-13 03:31N 33°12' W 118°01'612.1
2017-Jun-13 03:00N 33°17' W 118°05'611.9
2017-Jun-13 02:31N 33°23' W 118°08'611.9
2017-Jun-13 02:01N 33°28' W 118°10'611.9
2017-Jun-13 01:30N 33°34' W 118°12'611.2
2017-Jun-13 01:00N 33°39' W 118°12'5 9.4
2017-Jun-13 00:30N 33°44' W 118°11'1 0.9
2017-Jun-12 23:58N 33°44' W 118°10'0 0.0
2017-Jun-12 23:28N 33°44' W 118°10'0 0.0
2017-Jun-12 22:58N 33°44' W 118°10'0 0.0
2017-Jun-12 22:28N 33°44' W 118°10'0 0.0
2017-Jun-12 21:49N 33°44' W 118°10'0 0.0
2017-Jun-12 20:49N 33°44' W 118°10'0 0.0
2017-Jun-12 20:25N 33°44' W 118°10'0 0.1
2017-Jun-12 19:13N 33°44' W 118°10'0 0.2
2017-Jun-12 18:57N 33°44' W 118°10'0 0.0
2017-Jun-12 18:30N 33°44' W 118°10'0 0.1
2017-Jun-12 18:00N 33°44' W 118°10'0 0.0
2017-Jun-12 17:30N 33°44' W 118°10'0 0.1
2017-Jun-12 17:00N 33°44' W 118°10'0 0.0
2017-Jun-12 16:24N 33°44' W 118°10'0 0.0
2017-Jun-12 15:58N 33°44' W 118°10'0 0.1
2017-Jun-12 15:30N 33°44' W 118°10'0 0.1
2017-Jun-12 14:53N 33°44' W 118°10'0 0.1
2017-Jun-12 14:30N 33°44' W 118°10'0 0.1
2017-Jun-12 13:22N 33°44' W 118°10'0 0.0
2017-Jun-12 12:57N 33°44' W 118°10'0 0.0
2017-Jun-12 12:29N 33°44' W 118°10'0 0.1
2017-Jun-12 12:00N 33°44' W 118°10'0 0.0
2017-Jun-12 11:26N 33°44' W 118°10'0 0.1
2017-Jun-12 10:53N 33°44' W 118°10'0 0.0
2017-Jun-12 10:08N 33°44' W 118°10'0 0.1
2017-Jun-12 09:59N 33°44' W 118°10'0 0.0
2017-Jun-12 09:30N 33°44' W 118°10'0 0.0
2017-Jun-12 09:00N 33°44' W 118°10'0 0.0
2017-Jun-12 08:22N 33°44' W 118°10'0 0.0
2017-Jun-12 07:58N 33°44' W 118°10'0 0.1
2017-Jun-12 07:26N 33°44' W 118°10'0 0.1
2017-Jun-12 07:00N 33°44' W 118°10'0 0.1
2017-Jun-12 06:27N 33°44' W 118°10'0 0.1
2017-Jun-12 04:30N 33°44' W 118°10'5 6.7
2017-Jun-12 03:49N 33°39' W 118°11'3 7.8
2017-Jun-12 03:29N 33°37' W 118°12'510.0
2017-Jun-12 02:58N 33°36' W 118°18'4 9.2
2017-Jun-12 02:30N 33°36' W 118°23'611.3
2017-Jun-12 02:00N 33°36' W 118°30'611.6
2017-Jun-12 01:30N 33°37' W 118°37'4 8.4
2017-Jun-12 01:00N 33°37' W 118°42'1 1.7
2017-Jun-12 00:30N 33°37' W 118°43'1 2.0
2017-Jun-12 00:00N 33°37' W 118°44'3 6.5
2017-Jun-11 23:30N 33°38' W 118°48'611.9
2017-Jun-11 23:00N 33°39' W 118°55'612.1
2017-Jun-11 22:30N 33°39' W 119°03'4 7.2
2017-Jun-11 22:00N 33°39' W 119°07'4 8.9
2017-Jun-11 21:30N 33°38' W 119°12'713.9
2017-Jun-11 21:00N 33°38' W 119°21'713.7
2017-Jun-11 20:30N 33°38' W 119°29'713.6
2017-Jun-11 20:00N 33°38' W 119°37'713.4
2017-Jun-11 19:29N 33°38' W 119°45'613.2
2017-Jun-11 19:00N 33°38' W 119°53'713.4
2017-Jun-11 18:30N 33°38' W 120°01'713.2
2017-Jun-11 18:00N 33°37' W 120°09'713.3
2017-Jun-11 17:30N 33°37' W 120°17'713.5
2017-Jun-11 17:00N 33°37' W 120°25'713.6
2017-Jun-11 16:30N 33°37' W 120°33'612.7
2017-Jun-11 16:00N 33°38' W 120°41'714.7
2017-Jun-11 15:31N 33°44' W 120°45'715.0
2017-Jun-11 15:01N 33°51' W 120°50'1515.0
2017-Jun-11 14:01N 34°04' W 120°59'815.0
2017-Jun-11 13:31N 34°10' W 121°04'815.1
2017-Jun-11 13:01N 34°17' W 121°08'815.3
2017-Jun-11 12:31N 34°23' W 121°13'715.0
2017-Jun-11 12:01N 34°30' W 121°17'714.2
2017-Jun-11 11:31N 34°36' W 121°22'815.1
2017-Jun-11 11:00N 34°42' W 121°26'714.8
2017-Jun-11 10:31N 34°49' W 121°31'714.7
2017-Jun-11 10:01N 34°55' W 121°36'714.7
2017-Jun-11 09:30N 35°01' W 121°40'714.7
2017-Jun-11 09:01N 35°08' W 121°45'815.0
2017-Jun-11 08:30N 35°14' W 121°50'815.5
2017-Jun-11 08:00N 35°21' W 121°54'815.5
2017-Jun-11 07:30N 35°28' W 121°59'815.2
2017-Jun-11 07:00N 35°34' W 122°04'715.1
2017-Jun-11 06:30N 35°41' W 122°09'815.0
2017-Jun-11 06:00N 35°47' W 122°13'815.2
2017-Jun-11 05:30N 35°54' W 122°17'815.0
2017-Jun-11 05:00N 36°01' W 122°21'714.9
2017-Jun-11 04:30N 36°08' W 122°25'714.7
2017-Jun-11 04:00N 36°14' W 122°29'815.0
2017-Jun-11 03:30N 36°21' W 122°33'815.4
2017-Jun-11 02:59N 36°28' W 122°37'714.9
2017-Jun-11 02:30N 36°35' W 122°41'815.0
2017-Jun-11 01:59N 36°42' W 122°45'714.4
2017-Jun-11 01:30N 36°48' W 122°48'714.4
2017-Jun-11 01:00N 36°55' W 122°52'714.6
2017-Jun-11 00:30N 37°01' W 122°56'914.8
2017-Jun-10 23:52N 37°10' W 123°01'1014.7
2017-Jun-10 23:10N 37°20' W 123°05'314.6
2017-Jun-10 22:57N 37°23' W 123°06'614.4
2017-Jun-10 22:30N 37°29' W 123°09'713.9
2017-Jun-10 22:00N 37°34' W 123°04'713.9
2017-Jun-10 21:30N 37°38' W 122°57'714.2
2017-Jun-10 21:00N 37°42' W 122°49'713.7
2017-Jun-10 20:30N 37°46' W 122°42'612.0
2017-Jun-10 20:00N 37°47' W 122°35'612.9
2017-Jun-10 19:31N 37°50' W 122°28'5 9.1
2017-Jun-10 19:00N 37°54' W 122°27'713.2
2017-Jun-10 18:30N 38°01' W 122°24'714.2
2017-Jun-10 18:00N 38°04' W 122°16'612.6
2017-Jun-10 17:30N 38°02' W 122°08'0 0.5
2017-Jun-10 16:59N 38°02' W 122°08'0 0.0
2017-Jun-10 16:30N 38°02' W 122°08'  
2017-Jun-08 10:00N 38°02' W 122°08'0 0.2
2017-Jun-08 09:30N 38°02' W 122°08'4 4.0
2017-Jun-08 08:23N 38°04' W 122°13'2 6.0
2017-Jun-08 08:00N 38°04' W 122°16'4 7.1
2017-Jun-08 07:30N 38°03' W 122°21'3 6.2
2017-Jun-08 07:00N 38°01' W 122°24'4 7.5
2017-Jun-08 06:30N 37°58' W 122°27'510.7
2017-Jun-08 06:00N 37°53' W 122°25'510.7
2017-Jun-08 05:30N 37°48' W 122°22'3 5.2
2017-Jun-08 05:00N 37°45' W 122°21'0 0.1
2017-Jun-08 04:30N 37°45' W 122°21'0 0.0
2017-Jun-08 04:00N 37°45' W 122°21'0 0.1
2017-Jun-08 03:30N 37°45' W 122°21'0 0.0
2017-Jun-08 03:00N 37°45' W 122°21'0 0.0
2017-Jun-08 02:30N 37°45' W 122°21'0 0.3
2017-Jun-08 02:00N 37°46' W 122°21'0 0.4
2017-Jun-08 01:30N 37°46' W 122°21'0 0.1
2017-Jun-08 01:00N 37°46' W 122°21'0 0.0
2017-Jun-08 00:30N 37°46' W 122°21'0 0.1
2017-Jun-08 00:00N 37°46' W 122°21'0 0.0
2017-Jun-07 23:30N 37°46' W 122°21'0 0.0
2017-Jun-07 23:00N 37°46' W 122°21'0 0.1
2017-Jun-07 22:30N 37°46' W 122°21'0 0.0
2017-Jun-07 22:00N 37°46' W 122°21'0 0.1
2017-Jun-07 21:30N 37°46' W 122°21'0 0.0
2017-Jun-07 21:00N 37°46' W 122°21'0 0.2
2017-Jun-07 20:30N 37°46' W 122°21'0 0.4
2017-Jun-07 20:00N 37°45' W 122°21'0 0.1
2017-Jun-07 19:30N 37°45' W 122°21'0 0.1
2017-Jun-07 19:00N 37°45' W 122°21'0 0.1
2017-Jun-07 18:30N 37°45' W 122°21'0 0.1
2017-Jun-07 18:00N 37°45' W 122°21'0 0.0
2017-Jun-07 17:30N 37°45' W 122°21'0 0.0
2017-Jun-07 17:00N 37°45' W 122°21'0 0.0
2017-Jun-07 16:30N 37°45' W 122°21'0 0.0
2017-Jun-07 16:01N 37°45' W 122°21'0 0.1
2017-Jun-07 15:31N 37°45' W 122°21'0 0.0
2017-Jun-07 15:01N 37°45' W 122°21'0 0.1
2017-Jun-07 14:01N 37°46' W 122°21'0 0.2
2017-Jun-07 13:31N 37°46' W 122°21'0 0.0
2017-Jun-07 13:00N 37°46' W 122°21'0 0.0
2017-Jun-07 12:30N 37°46' W 122°21'0 0.1
2017-Jun-07 12:01N 37°46' W 122°21'0 0.0
2017-Jun-07 11:31N 37°46' W 122°21'0 0.0
2017-Jun-07 11:00N 37°46' W 122°21'0 0.0
2017-Jun-07 10:31N 37°46' W 122°21'0 0.0
2017-Jun-07 10:00N 37°46' W 122°21'0 0.0
2017-Jun-07 09:31N 37°46' W 122°21'0 0.0
2017-Jun-07 09:00N 37°46' W 122°21'0 0.0
2017-Jun-07 08:31N 37°46' W 122°21'0 0.0
2017-Jun-07 08:00N 37°46' W 122°21'0 0.2
2017-Jun-07 07:31N 37°46' W 122°21'0 0.3
2017-Jun-07 07:01N 37°46' W 122°21'0 0.2
2017-Jun-07 06:30N 37°45' W 122°21'0 0.1
2017-Jun-07 06:01N 37°45' W 122°21'0 0.0
2017-Jun-07 05:31N 37°45' W 122°21'0 0.0
2017-Jun-07 05:00N 37°45' W 122°21'0 0.0
2017-Jun-07 04:31N 37°45' W 122°21'0 0.0
2017-Jun-07 04:00N 37°45' W 122°21'0 0.1
2017-Jun-07 03:30N 37°45' W 122°21'0 0.0
2017-Jun-07 03:01N 37°45' W 122°21'0 0.1
2017-Jun-07 02:31N 37°45' W 122°21'0 0.0
2017-Jun-07 02:00N 37°45' W 122°21'0 0.1
2017-Jun-07 01:31N 37°45' W 122°21'0 0.2
2017-Jun-07 01:01N 37°46' W 122°21'0 0.4
2017-Jun-07 00:30N 37°46' W 122°21'0 0.1
2017-Jun-07 00:00N 37°46' W 122°21'0 0.0
2017-Jun-06 23:31N 37°46' W 122°21'0 0.1
2017-Jun-06 23:01N 37°46' W 122°21'1 2.7
2017-Jun-06 22:31N 37°47' W 122°22'4 7.7
2017-Jun-06 22:00N 37°49' W 122°26'4 8.6
2017-Jun-06 21:30N 37°48' W 122°31'611.8
2017-Jun-06 21:00N 37°46' W 122°38'5 9.8
2017-Jun-06 20:30N 37°43' W 122°43'4 8.4
2017-Jun-06 20:01N 37°40' W 122°47'510.4
2017-Jun-06 19:31N 37°37' W 122°53'611.3
2017-Jun-06 19:01N 37°34' W 122°59'612.0
2017-Jun-06 18:31N 37°31' W 123°05'612.1
2017-Jun-06 18:01N 37°27' W 123°11'612.0
2017-Jun-06 17:29N 37°24' W 123°18'612.1
2017-Jun-06 17:00N 37°20' W 123°23'612.2
2017-Jun-06 16:31N 37°16' W 123°29'611.0
2017-Jun-06 16:01N 37°11' W 123°31'1 1.9
2017-Jun-06 15:31N 37°10' W 123°32'0 0.6
2017-Jun-06 15:00N 37°11' W 123°32'4 7.0
2017-Jun-06 14:31N 37°07' W 123°34'1211.9
2017-Jun-06 13:30N 36°56' W 123°40'611.9
2017-Jun-06 13:01N 36°51' W 123°42'612.0
2017-Jun-06 12:31N 36°45' W 123°44'611.9
2017-Jun-06 12:01N 36°39' W 123°47'611.7
2017-Jun-06 11:30N 36°34' W 123°50'611.7
2017-Jun-06 11:01N 36°28' W 123°52'611.6
2017-Jun-06 10:30N 36°23' W 123°55'611.6
2017-Jun-06 10:01N 36°18' W 123°57'611.6
2017-Jun-06 09:30N 36°12' W 123°60'611.5
2017-Jun-06 09:01N 36°07' W 124°02'611.4
2017-Jun-06 08:31N 36°01' W 124°05'611.3
2017-Jun-06 08:01N 35°56' W 124°07'611.1
2017-Jun-06 07:29N 35°51' W 124°09'511.1
2017-Jun-06 07:00N 35°46' W 124°12'611.1
2017-Jun-06 06:30N 35°41' W 124°15'510.9
2017-Jun-06 06:01N 35°36' W 124°17'510.7
2017-Jun-06 05:31N 35°31' W 124°19'611.1
2017-Jun-06 05:01N 35°25' W 124°21'611.8
2017-Jun-06 04:30N 35°20' W 124°24'611.8
2017-Jun-06 03:58N 35°14' W 124°26'4711.5
2017-Jun-05 23:52N 34°30' W 124°47'3011.2
2017-Jun-05 21:12N 34°01' W 124°56'511.5
2017-Jun-05 20:46N 33°57' W 124°54'311.7
2017-Jun-05 20:31N 33°54' W 124°53'711.6
2017-Jun-05 19:56N 33°48' W 124°50'3611.3
2017-Jun-05 16:45N 33°14' W 124°34'411.7
2017-Jun-05 16:24N 33°10' W 124°33'511.5
2017-Jun-05 16:00N 33°06' W 124°31'611.6
2017-Jun-05 15:30N 33°01' W 124°28'611.8
2017-Jun-05 15:01N 32°55' W 124°25'711.7
2017-Jun-05 14:24N 32°48' W 124°22'1211.4
2017-Jun-05 13:23N 32°38' W 124°17'411.3
2017-Jun-05 13:00N 32°34' W 124°15'2011.5
2017-Jun-05 11:17N 32°15' W 124°07'411.3
2017-Jun-05 10:55N 32°11' W 124°05'511.4
2017-Jun-05 10:30N 32°07' W 124°03'1211.4
2017-Jun-05 09:24N 31°56' W 123°56'511.6
2017-Jun-05 09:01N 31°53' W 123°53'611.6
2017-Jun-05 08:30N 31°48' W 123°48'911.5
2017-Jun-05 07:46N 31°42' W 123°41'811.4
2017-Jun-05 07:03N 31°36' W 123°35'111.2
2017-Jun-05 06:59N 31°35' W 123°34'511.5
2017-Jun-05 06:31N 31°31' W 123°30'1511.6
2017-Jun-05 05:10N 31°20' W 123°18'211.2
2017-Jun-05 05:01N 31°19' W 123°16'611.5
2017-Jun-05 04:31N 31°14' W 123°12'611.5
2017-Jun-05 04:00N 31°10' W 123°07'1411.3
2017-Jun-05 02:44N 30°59' W 122°56'411.5
2017-Jun-05 02:21N 30°56' W 122°52'411.4
2017-Jun-05 02:00N 30°53' W 122°49'611.3
2017-Jun-05 01:25N 30°48' W 122°44'1011.5
2017-Jun-05 00:32N 30°41' W 122°36'010.9
2017-Jun-05 00:29N 30°41' W 122°35'611.4
2017-Jun-04 23:59N 30°36' W 122°31'511.5
2017-Jun-04 23:31N 30°32' W 122°27'911.7
2017-Jun-04 22:46N 30°26' W 122°20'311.8
2017-Jun-04 22:31N 30°24' W 122°18'611.9
2017-Jun-04 22:00N 30°19' W 122°13'6112.2
2017-Jun-04 17:01N 29°34' W 121°26'013.1
2017-Jun-04 17:01N 29°34' W 121°26'3712.3
2017-Jun-04 14:01N 29°07' W 120°57'712.5
2017-Jun-04 13:26N 29°01' W 120°52'512.4
2017-Jun-04 13:01N 28°58' W 120°48'  

Dump ship's entire track history